Flight Track Log - Related Links

Times and Time Zones

All times are in EDT time to prevent confusion due to time zone crossing. See the RPA3865 flight status page for this flight to view local times or setup timezone preferences in your user account.

Time Position Orientation Groundspeed Altitude Reporting Facility
EDT Latitude Longitude Course Direction KTS MPH feet Rate Location/Type
Sat 17:46:00 39.8500 -104.5500 207° Southwest 202 232 7,900  Level Denver TRACON
Sat 17:46:54 39.8333 -104.5000 113° Southeast 229 264 9,600 1,606 Climbing Denver TRACON
Sat 17:47:11 39.8244 -104.4744 114° Southeast 228 262 9,800 2,127 Climbing Denver Center
Sat 17:48:13 39.7781 -104.4128 134° Southeast 232 267 12,400 1,984 Climbing Denver Center
Sat 17:49:15 39.7142 -104.4000 171° South 233 268 13,900 1,366 Climbing Denver Center
Sat 17:50:16 39.6739 -104.4719 234° Southwest 246 283 15,200 1,366 Climbing Denver Center
Sat 17:51:00 39.3692 -104.9150 207° Southwest  Level FlightAware Approximate
Sat 17:51:18 39.6333 -104.5494 236° Southwest 257 296 16,700  Level Denver Center
Sat 17:52:19 39.5839 -104.6397 235° Southwest 294 338 17,000 146 Climbing Denver Center
Sat 17:53:21 39.5297 -104.6956 218° Southwest 325 374 17,000 838 Level Denver Center
Sat 17:54:35 39.4403 -104.7786 216° Southwest 318 366 18,900 1,544 Climbing Denver Center
Sat 17:55:37 39.3611 -104.8547 217° Southwest 290 334 20,500 1,317 Climbing Denver Center
Sat 17:56:38 39.2919 -104.9206 216° Southwest 287 330 21,600 889 Climbing Denver Center
Sat 17:57:52 39.2275 -104.9819 216° Southwest 285 328 22,500 838 Climbing Denver Center
Sat 17:58:54 39.1478 -105.0581 217° Southwest 291 335 23,500 732 Climbing Denver Center
Sat 17:59:55 39.0742 -105.1033 206° Southwest 287 330 24,000 244 Climbing Denver Center
Sat 18:00:57 38.9936 -105.1467 203° Southwest 306 352 24,000  Level Denver Center
Sat 18:01:58 38.9100 -105.1975 205° Southwest 325 374 24,000  Level Denver Center
Sat 18:03:00 38.8206 -105.2500 205° Southwest 331 381 24,000  Level Denver Center
Sat 18:04:01 38.7386 -105.2986 205° Southwest 338 389 24,000  Level Denver Center
Sat 18:05:03 38.6425 -105.3539 204° Southwest 339 390 24,000  Level Denver Center
Sat 18:06:04 38.5608 -105.4025 205° Southwest 339 390 24,000  Level Denver Center
Sat 18:07:06 38.4717 -105.4319 194° South 346 398 24,000  Level Denver Center
Sat 18:08:08 38.3669 -105.4672 195° South 347 399 24,000  Level Denver Center
Sat 18:09:09 38.2789 -105.4989 196° South 345 397 24,000  Level Denver Center
Sat 18:10:23 38.1742 -105.5344 195° South 348 400 24,000  Level Denver Center
Sat 18:11:24 38.0714 -105.5689 195° South 344 396 24,000  Level Denver Center
Sat 18:12:26 37.9675 -105.6053 195° South 345 397 24,000  Level Denver Center
Sat 18:13:28 37.8781 -105.6350 195° South 347 399 24,000  Level Denver Center
Sat 18:14:29 37.7750 -105.6708 195° South 345 397 24,000  Level Denver Center
Sat 18:15:31 37.6831 -105.7019 195° South 354 407 24,000  Level Denver Center
Sat 18:16:32 37.5794 -105.7364 195° South 348 400 24,000  Level Denver Center
Sat 18:17:34 37.4908 -105.7664 195° South 345 397 24,000  Level Denver Center
Sat 18:18:36 37.4031 -105.7964 195° South 342 394 24,000  Level Denver Center
Sat 18:19:37 37.3008 -105.8347 197° South 344 396 24,000  Level Denver Center
Sat 18:20:39 37.2175 -105.8731 200° South 344 396 24,000  Level Denver Center
Sat 18:21:40 37.1339 -105.9119 200° South 337 388 24,000  Level Denver Center
Sat 18:22:42 37.0342 -105.9558 199° South 338 389 24,000  Level Denver Center
Sat 18:23:44 36.9319 -105.9994 199° South 344 396 24,000  Level Denver Center
Sat 18:24:45 36.8467 -106.0408 201° Southwest 346 398 24,000  Level Denver Center
Sat 18:25:47 36.7489 -106.0797 198° South 341 392 24,000  Level Denver Center
Sat 18:26:49 36.6592 -106.1211 200° South 344 396 24,000  Level Denver Center
Sat 18:27:42 36.5711 -106.1597 199° South 349 402 24,000  Level Albuquerque Center
Sat 18:28:43 36.4853 -106.1994 200° South 346 398 24,000  Level Albuquerque Center
Sat 18:29:44 36.3972 -106.2369 199° South 347 399 24,000  Level Albuquerque Center
Sat 18:30:46 36.2972 -106.2808 199° South 342 394 24,000  Level Albuquerque Center
Sat 18:31:47 36.2103 -106.3189 199° South 344 396 24,000  Level Albuquerque Center
Sat 18:32:48 36.1169 -106.3597 199° South 342 394 24,000  Level Albuquerque Center
Sat 18:33:50 36.0275 -106.3983 199° South 341 392 24,000 -683 Level Albuquerque Center
Sat 18:34:51 35.9358 -106.4372 199° South 345 397 22,600 -1,659 Descending Albuquerque Center
Sat 18:35:53 35.8339 -106.4811 199° South 348 400 20,600 -1,805 Descending Albuquerque Center
Sat 18:36:54 35.7522 -106.5150 199° South 347 399 18,900 -1,920 Descending Albuquerque Center
Sat 18:37:33 35.6781 -106.5472 199° South 352 405 17,400 -2,172 Descending Albuquerque Center
Sat 18:37:52 35.6481 -106.5600 199° South 355 409 16,800 -1,899 Descending Albuquerque Center
Sat 18:38:52 35.5553 -106.6025 200° South 357 411 14,900 -1,785 Descending Albuquerque Center
Sat 18:39:53 35.4692 -106.6353 197° South 327 376 13,200 -1,148 Descending Albuquerque Center
Sat 18:40:47 35.3981 -106.6669 200° South 290 334 12,700 -1,148 Descending Albuquerque Center
Sat 18:41:48 35.3250 -106.7014 201° Southwest 273 314 11,000 -1,623 Descending Albuquerque Center
Sat 18:42:49 35.2567 -106.7372 203° Southwest 272 313 9,400 -1,438 Descending Albuquerque Center
Sat 18:43:49 35.1872 -106.7681 200° South 262 302 8,100 -1,120 Descending Albuquerque Center
Sat 18:44:04 35.1750 -106.7672 177° South 262 302 8,000 -98 Descending Albuquerque Center
Sat 18:44:50 35.1256 -106.7683 181° South 208 239 8,000 -197 Level Albuquerque Center
Sat 18:45:05 35.1125 -106.7672 176° South 236 272 7,800 -800 Descending Albuquerque Center
Sat 18:45:50 35.0664 -106.7472 160° South 198 228 7,200 -492 Descending Albuquerque Center
Sat 18:46:06 35.0561 -106.7406 152° Southeast 216 249 7,300 -787 Climbing Albuquerque Center
Sat 18:46:51 35.0439 -106.6908 107° East 185 213 6,400 -968 Descending Albuquerque Center
Sat 18:47:08 35.0444 -106.6797 87° East 200 230 6,300 -787 Descending Albuquerque Center
Sat 18:47:52 35.0450 -106.6361 89° East 154 177 5,600 -787 Descending Albuquerque Center
Sat 18:48:09 35.0444 -106.6244 93° East 181 208 5,500 -353 Descending Albuquerque Center
Sat 18:50:00 35.0402 -106.6092 90° East  Level Estimated

Login

Don't have an account? Register now (free) for customized features, flight alerts, and more!